Lake Oke West End current weather conditions

sailwx.info

Wind from 191 at 13 knots gusting 16

Air temperature 26.8° C
Dewpoint 23.9° C
Water temperature -7999.0° C

Last reported at 2019-Oct-20 00:00 UTC.
Time now 2019-Oct-20 00:36 UTC

Location: N 26°58' W 080°56'.
View on Google Maps.

See reports from other nearby stations

  
Tides and Currents Weather Stations Pressure Air Temp Water Temp Dewpoint Dewpoint Depression Visibility Wind Speed Wind Dir Waves Ship Positions
date/time (UTC)wind fromknots sea level pressurealtimeterstation pressurevisibilityair tempwater tempwave heightnotes
2019-Oct-20 00:00 191 13 gusting 16 26.8-7999.0
2019-Oct-19 23:45 161 7 gusting 9 26.7-7999.0
2019-Oct-19 23:30 168 5 gusting 6 26.2-7999.0
2019-Oct-19 23:15 191 6 gusting 7 25.8-7999.0
2019-Oct-19 23:00 197 6 gusting 7 25.6-7999.0
2019-Oct-19 22:45 229 7 gusting 11 25.1-7999.0
2019-Oct-19 22:30 224 14 gusting 22 25.6-7999.0
2019-Oct-19 22:15 183 8 gusting 13 26.3-7999.0
2019-Oct-19 22:00 179 7 gusting 9 26.0-7999.0
2019-Oct-19 21:45 187 8 gusting 9 25.9-7999.0
2019-Oct-19 21:30 196 10 gusting 11 25.8-7999.0
2019-Oct-19 21:15 194 13 gusting 15 26.0-7999.0
2019-Oct-19 21:00 202 11 gusting 14 26.1-7999.0
2019-Oct-19 20:45 188 12 gusting 14 25.6-7999.0
2019-Oct-19 20:30 182 11 gusting 14 25.3-7999.0
2019-Oct-19 20:15 191 14 gusting 16 25.4-7999.0
2019-Oct-19 20:00 214 14 gusting 19 26.0-7999.0
2019-Oct-19 19:45 211 15 gusting 19 27.2-7999.0
2019-Oct-19 19:30 204 12 gusting 16 27.7-7999.0
2019-Oct-19 19:15 211 10 gusting 13 27.6-7999.0
2019-Oct-19 19:00 195 10 gusting 13 27.9-7999.0
2019-Oct-19 18:45 198 12 gusting 15 27.9-7999.0
2019-Oct-19 18:30 204 14 gusting 19 27.9-7999.0
2019-Oct-19 18:15 177 13 gusting 18 27.6-7999.0
2019-Oct-19 18:00 176 13 gusting 17 27.4-7999.0
2019-Oct-19 17:45 163 11 gusting 13 27.3-7999.0
2019-Oct-19 17:30 166 12 gusting 14 27.2-7999.0
2019-Oct-19 17:15 160 13 gusting 16 27.0-7999.0
2019-Oct-19 17:00 153 11 gusting 14 26.8-7999.0
2019-Oct-19 16:45 166 8 gusting 10 26.7-7999.0
2019-Oct-19 16:30 176 10 gusting 13 26.8-7999.0
2019-Oct-19 16:15 168 11 gusting 14 26.8-7999.0
2019-Oct-19 15:45 159 16 gusting 18 26.5-7999.0
2019-Oct-19 15:30 157 15 gusting 18 26.4-7999.0
2019-Oct-19 15:15 160 15 gusting 18 26.3-7999.0
2019-Oct-19 14:30 164 16 gusting 19 26.0-7999.0
2019-Oct-19 13:45 158 17 gusting 20 26.2-7999.0
2019-Oct-19 13:30 154 17 gusting 19 26.2-7999.0
2019-Oct-19 12:45 184 15 gusting 19 26.2-7999.0
2019-Oct-19 12:30 173 17 gusting 20 26.2-7999.0
2019-Oct-19 12:15 169 18 gusting 20 26.5-7999.0
2019-Oct-19 12:00 163 19 gusting 21 26.5-7999.0
2019-Oct-19 11:45 157 15 gusting 17 26.4-7999.0
2019-Oct-19 11:15 148 14 gusting 17 26.6-7999.0
2019-Oct-19 11:00 153 14 gusting 17 26.8-7999.0
2019-Oct-19 10:45 159 14 gusting 17 26.7-7999.0
2019-Oct-19 10:30 157 14 gusting 16 26.5-7999.0
2019-Oct-19 10:15 148 15 gusting 17 26.4-7999.0
2019-Oct-19 10:00 149 14 gusting 17 26.3-7999.0
2019-Oct-19 09:45 154 14 gusting 16 26.3-7999.0
2019-Oct-19 09:30 163 15 gusting 17 26.4-7999.0
2019-Oct-19 09:15 162 14 gusting 17 26.6-7999.0
2019-Oct-19 09:00 165 14 gusting 16 26.7-7999.0
2019-Oct-19 08:45 161 13 gusting 15 26.8-7999.0
2019-Oct-19 08:30 158 12 gusting 14 26.8-7999.0
2019-Oct-19 08:15 161 12 gusting 14 26.9-7999.0
2019-Oct-19 07:45 160 13 gusting 15 26.8-7999.0
2019-Oct-19 07:30 151 12 gusting 14 26.8-7999.0
2019-Oct-19 07:15 149 13 gusting 15 26.8-7999.0
2019-Oct-19 06:30 144 12 gusting 13 26.9-7999.0
2019-Oct-19 03:45 159 13 gusting 15 26.8-7999.0
2019-Oct-18 23:00 107 12 gusting 14 27.6-7999.0